createdAt,value
2023-02-04T00:00:39.951Z,86.45
2023-02-04T00:03:07.859Z,87.77
2023-02-04T00:05:36.933Z,87.84
2023-02-04T00:08:07.797Z,86.72
2023-02-04T00:10:36.088Z,88.03
2023-02-04T00:13:04.309Z,87.04
2023-02-04T00:15:36.641Z,88.25
2023-02-04T00:18:05.827Z,88.47
2023-02-04T00:20:33.858Z,88.67
2023-02-04T00:23:01.645Z,89.10
2023-02-04T00:25:29.754Z,88.65
2023-02-04T00:27:57.613Z,89.34
2023-02-04T00:30:26.840Z,88.99
2023-02-04T00:32:56.677Z,88.59
2023-02-04T00:35:24.550Z,88.09
2023-02-04T00:37:53.742Z,87.74
2023-02-04T00:40:21.473Z,87.65
2023-02-04T00:42:49.125Z,86.88
2023-02-04T00:45:17.662Z,87.60
2023-02-04T00:47:45.222Z,87.21
2023-02-04T00:50:12.866Z,87.84
2023-02-04T00:52:40.690Z,87.18
2023-02-04T00:55:10.529Z,88.00
2023-02-04T00:57:39.222Z,87.91
2023-02-04T01:00:07.157Z,87.81
2023-02-04T01:02:34.985Z,88.24
2023-02-04T01:05:02.623Z,88.57
2023-02-04T01:07:33.397Z,89.25
2023-02-04T01:10:01.405Z,88.40
2023-02-04T01:12:29.376Z,88.89
2023-02-04T01:14:57.183Z,87.39
2023-02-04T01:17:26.000Z,87.98
2023-02-04T01:19:54.508Z,88.05
2023-02-04T01:22:22.168Z,89.23
2023-02-04T01:24:50.838Z,88.88
2023-02-04T01:27:36.682Z,89.80
2023-02-04T01:30:06.011Z,88.79
2023-02-04T01:32:35.138Z,88.72
2023-02-04T01:35:02.933Z,89.66
2023-02-04T01:37:30.754Z,88.05
2023-02-04T01:39:58.381Z,88.78
2023-02-04T01:42:25.996Z,89.37
2023-02-04T01:44:53.621Z,88.89
2023-02-04T01:47:22.316Z,88.58
2023-02-04T01:49:51.426Z,88.80
2023-02-04T01:52:18.980Z,91.74
2023-02-04T01:54:46.894Z,90.82
2023-02-04T01:57:15.673Z,90.12
2023-02-04T01:59:44.832Z,90.68
2023-02-04T02:02:37.337Z,91.18
2023-02-04T02:05:05.403Z,92.36
2023-02-04T02:07:33.063Z,93.55
2023-02-04T02:10:00.800Z,93.39
2023-02-04T02:12:29.241Z,92.49
2023-02-04T02:14:56.928Z,92.60
2023-02-04T02:17:24.715Z,93.38
2023-02-04T02:19:53.198Z,92.53
2023-02-04T02:22:36.998Z,92.54
2023-02-04T02:25:12.058Z,93.90
2023-02-04T02:27:40.594Z,94.18
2023-02-04T02:30:09.728Z,94.35
2023-02-04T02:32:38.067Z,94.01
2023-02-04T02:35:06.286Z,94.17
2023-02-04T02:37:34.271Z,94.39
2023-02-04T02:40:01.879Z,94.12
2023-02-04T02:42:29.605Z,94.38
2023-02-04T02:44:57.301Z,93.97
2023-02-04T02:47:24.869Z,92.93
2023-02-04T02:49:53.237Z,93.77
2023-02-04T02:52:20.978Z,93.72
2023-02-04T02:54:48.646Z,94.17
2023-02-04T02:57:21.920Z,93.34
2023-02-04T02:59:49.654Z,93.44
2023-02-04T03:02:19.232Z,93.14
2023-02-04T03:04:50.762Z,93.56
2023-02-04T03:07:18.802Z,93.72
2023-02-04T03:09:46.575Z,93.68
2023-02-04T03:12:14.205Z,93.13
2023-02-04T03:14:41.868Z,92.65
2023-02-04T03:17:10.080Z,94.21
2023-02-04T03:19:38.356Z,93.39
2023-02-04T03:22:06.189Z,93.44
2023-02-04T03:24:34.307Z,93.27
2023-02-04T03:27:02.188Z,93.98
2023-02-04T03:29:30.252Z,93.65
2023-02-04T03:32:00.214Z,93.38
2023-02-04T03:34:27.996Z,93.64
2023-02-04T03:36:56.367Z,94.20
2023-02-04T03:39:24.395Z,93.95
2023-02-04T03:41:51.990Z,93.64
2023-02-04T03:44:19.757Z,93.59
2023-02-04T03:46:47.846Z,94.57
2023-02-04T03:49:15.378Z,95.96
2023-02-04T03:51:43.539Z,97.45
2023-02-04T03:54:11.088Z,96.09
2023-02-04T03:56:39.807Z,95.50
2023-02-04T03:59:07.402Z,95.49
2023-02-04T04:01:36.429Z,99.11
2023-02-04T04:04:04.241Z,99.99
2023-02-04T04:06:32.208Z,99.81
2023-02-04T04:09:00.046Z,99.63
2023-02-04T04:11:27.882Z,99.64
2023-02-04T04:13:56.239Z,100.00
2023-02-04T04:16:24.406Z,100.00
2023-02-04T04:18:56.208Z,100.00
2023-02-04T04:21:24.058Z,100.00
2023-02-04T04:23:51.859Z,100.00
2023-02-04T04:26:19.526Z,100.00
2023-02-04T04:28:47.132Z,100.00
2023-02-04T04:31:15.139Z,100.00
2023-02-04T04:33:42.872Z,100.00
2023-02-04T04:36:10.533Z,100.00
2023-02-04T04:38:38.251Z,100.00
2023-02-04T04:41:06.779Z,100.00
2023-02-04T04:43:34.338Z,100.00
2023-02-04T04:46:02.082Z,100.00
2023-02-04T04:48:29.728Z,100.00
2023-02-04T04:50:58.488Z,100.00
2023-02-04T04:53:26.375Z,99.78
2023-02-04T04:55:54.064Z,100.00
2023-02-04T04:58:22.003Z,100.00
2023-02-04T05:00:49.646Z,100.00
2023-02-04T05:03:17.414Z,100.00
2023-02-04T05:05:45.176Z,100.00
2023-02-04T05:08:17.156Z,99.90
2023-02-04T05:10:44.791Z,100.00
2023-02-04T05:13:12.367Z,100.00
2023-02-04T05:15:40.112Z,100.00
2023-02-04T05:18:07.811Z,99.25
2023-02-04T05:20:35.546Z,98.66
2023-02-04T05:23:05.533Z,99.29
2023-02-04T05:25:33.387Z,98.99
2023-02-04T05:28:01.094Z,98.47
2023-02-04T05:30:29.160Z,99.35
2023-02-04T05:32:56.769Z,98.63
2023-02-04T05:35:24.356Z,98.90
2023-02-04T05:37:52.059Z,98.81
2023-02-04T05:40:19.797Z,98.44
2023-02-04T05:42:48.189Z,97.74
2023-02-04T05:45:16.907Z,98.29
2023-02-04T05:47:44.501Z,98.85
2023-02-04T05:50:12.121Z,99.38
2023-02-04T05:52:40.616Z,98.66
2023-02-04T05:55:08.973Z,97.76
2023-02-04T05:57:36.699Z,98.04
2023-02-04T06:00:04.714Z,97.52
2023-02-04T06:02:40.013Z,96.92
2023-02-04T06:05:07.831Z,96.54
2023-02-04T06:07:35.871Z,97.26
2023-02-04T06:10:04.468Z,96.79
2023-02-04T06:12:32.849Z,96.35
2023-02-04T06:15:00.425Z,95.38
2023-02-04T06:17:29.134Z,95.35
2023-02-04T06:19:57.035Z,95.42
2023-02-04T06:22:26.066Z,95.47
2023-02-04T06:24:55.787Z,94.86
2023-02-04T06:27:23.656Z,95.63
2023-02-04T06:29:54.394Z,94.20
2023-02-04T06:32:22.429Z,94.43
2023-02-04T06:34:50.311Z,94.83
2023-02-04T06:37:18.067Z,94.89
2023-02-04T06:39:45.914Z,93.68
2023-02-04T06:42:13.482Z,94.39
2023-02-04T06:44:41.084Z,94.18
2023-02-04T06:47:08.883Z,93.18
2023-02-04T06:49:36.580Z,93.99
2023-02-04T06:52:04.298Z,93.15
2023-02-04T06:54:32.153Z,93.53
2023-02-04T06:57:06.717Z,94.20
2023-02-04T06:59:38.094Z,94.35
2023-02-04T07:02:05.956Z,93.29
2023-02-04T07:04:34.259Z,93.37
2023-02-04T07:07:01.957Z,93.56
2023-02-04T07:09:29.724Z,94.01
2023-02-04T07:11:57.387Z,93.56
2023-02-04T07:14:28.835Z,93.35
2023-02-04T07:16:58.717Z,93.06
2023-02-04T07:19:26.326Z,92.42
2023-02-04T07:21:57.121Z,93.13
2023-02-04T07:24:25.296Z,92.83
2023-02-04T07:26:53.656Z,92.48
2023-02-04T07:29:25.587Z,92.17
2023-02-04T07:31:54.139Z,91.64
2023-02-04T07:34:21.801Z,91.80
2023-02-04T07:36:50.027Z,91.66
2023-02-04T07:39:17.827Z,91.84
2023-02-04T07:41:45.596Z,90.96
2023-02-04T07:44:15.117Z,91.74
2023-02-04T07:46:43.025Z,91.21
2023-02-04T07:49:10.687Z,92.00
2023-02-04T07:51:38.647Z,90.51
2023-02-04T07:54:06.275Z,90.16
2023-02-04T07:56:33.927Z,90.72
2023-02-04T07:59:01.611Z,90.49
2023-02-04T08:01:29.446Z,91.47
2023-02-04T08:03:57.151Z,90.90
2023-02-04T08:06:24.744Z,90.12
2023-02-04T08:08:52.367Z,89.24
2023-02-04T08:11:22.779Z,90.03
2023-02-04T08:13:50.588Z,89.16
2023-02-04T08:16:18.246Z,88.17
2023-02-04T08:18:45.917Z,88.62
2023-02-04T08:21:13.544Z,87.64
2023-02-04T08:23:41.989Z,86.92
2023-02-04T08:26:11.502Z,86.57
2023-02-04T08:28:39.339Z,86.17
2023-02-04T08:31:07.407Z,86.48
2023-02-04T08:33:36.403Z,86.09
2023-02-04T08:36:05.980Z,85.89
2023-02-04T08:38:33.694Z,86.84
2023-02-04T08:41:01.705Z,87.11
2023-02-04T08:43:29.466Z,86.88
2023-02-04T08:45:57.116Z,87.15
2023-02-04T08:48:24.652Z,85.69
2023-02-04T08:50:52.416Z,85.38
2023-02-04T08:53:20.030Z,84.37
2023-02-04T08:55:47.620Z,84.28
2023-02-04T08:58:15.160Z,85.10
2023-02-04T09:00:42.922Z,83.72
2023-02-04T09:03:10.484Z,83.86
2023-02-04T09:05:38.076Z,86.09
2023-02-04T09:08:05.821Z,86.25
2023-02-04T09:10:33.988Z,86.39
2023-02-04T09:13:01.820Z,86.86
2023-02-04T09:15:29.645Z,86.71
2023-02-04T09:18:04.868Z,85.46
2023-02-04T09:20:33.069Z,85.31
2023-02-04T09:23:00.929Z,84.98
2023-02-04T09:25:28.560Z,83.92
2023-02-04T09:27:56.405Z,85.38
2023-02-04T09:30:24.289Z,86.25
2023-02-04T09:32:52.361Z,85.78
2023-02-04T09:35:20.372Z,86.76
2023-02-04T09:37:48.035Z,85.72
2023-02-04T09:40:17.536Z,85.41
2023-02-04T09:42:47.070Z,86.24
2023-02-04T09:45:19.485Z,86.52
2023-02-04T09:47:47.100Z,84.66
2023-02-04T09:50:19.714Z,85.67
2023-02-04T09:52:48.039Z,85.36
2023-02-04T09:55:16.897Z,86.09
2023-02-04T09:57:44.560Z,85.44
2023-02-04T10:00:17.321Z,84.64
2023-02-04T10:02:44.964Z,85.99
2023-02-04T10:05:17.067Z,85.75
2023-02-04T10:07:46.738Z,85.55
2023-02-04T10:10:19.111Z,85.47
2023-02-04T10:12:47.445Z,85.78
2023-02-04T10:15:15.815Z,85.97
2023-02-04T10:17:43.485Z,86.47
2023-02-04T10:20:18.179Z,86.23
2023-02-04T10:22:46.748Z,87.14
2023-02-04T10:25:15.459Z,87.63
2023-02-04T10:27:56.136Z,87.15
2023-02-04T10:30:28.629Z,85.49
2023-02-04T10:32:56.441Z,85.28
2023-02-04T10:35:24.032Z,84.76
2023-02-04T10:38:07.763Z,85.16
2023-02-04T10:40:36.495Z,84.77
2023-02-04T10:43:18.056Z,83.14
2023-02-04T10:46:00.489Z,82.48
2023-02-04T10:48:30.263Z,83.69
2023-02-04T10:50:58.838Z,82.11
2023-02-04T10:53:46.295Z,82.61
2023-02-04T10:56:20.084Z,82.95
2023-02-04T10:58:48.132Z,82.48
2023-02-04T11:01:16.428Z,81.91
2023-02-04T11:03:46.412Z,81.82
2023-02-04T11:06:20.997Z,80.33
2023-02-04T11:08:50.340Z,81.57
2023-02-04T11:11:18.917Z,81.20
2023-02-04T11:13:49.495Z,80.81
2023-02-04T11:16:23.435Z,80.53
2023-02-04T11:18:54.679Z,80.29
2023-02-04T11:21:34.696Z,80.51
2023-02-04T11:24:11.329Z,80.77
2023-02-04T11:26:55.229Z,81.16
2023-02-04T11:29:34.947Z,81.12
2023-02-04T11:32:07.695Z,80.38
2023-02-04T11:34:49.595Z,78.11
2023-02-04T11:37:18.541Z,78.21
2023-02-04T11:39:49.738Z,77.99
2023-02-04T11:42:25.147Z,78.66
2023-02-04T11:45:00.478Z,77.12
2023-02-04T11:47:28.622Z,78.07
2023-02-04T11:50:00.102Z,78.81
2023-02-04T11:52:28.049Z,79.15
2023-02-04T11:54:59.866Z,77.91
2023-02-04T11:57:27.756Z,78.46
2023-02-04T11:59:55.536Z,78.55
2023-02-04T12:02:26.214Z,78.97
2023-02-04T12:05:12.909Z,78.82
2023-02-04T12:07:40.638Z,78.73
2023-02-04T12:10:18.401Z,77.77
2023-02-04T12:12:51.711Z,78.17
2023-02-04T12:15:33.618Z,78.88
2023-02-04T12:18:07.431Z,80.57
2023-02-04T12:20:37.660Z,80.70
2023-02-04T12:23:05.894Z,81.60
2023-02-04T12:25:33.949Z,81.32
2023-02-04T12:28:01.799Z,81.68
2023-02-04T12:30:29.667Z,81.81
2023-02-04T12:32:57.543Z,82.65
2023-02-04T12:35:25.207Z,81.69
2023-02-04T12:37:52.981Z,81.34
2023-02-04T12:40:21.923Z,83.26
2023-02-04T12:42:49.725Z,81.97
2023-02-04T12:45:17.955Z,82.69
2023-02-04T12:47:46.214Z,82.26
2023-02-04T12:50:22.802Z,82.65
2023-02-04T12:52:51.850Z,82.65
2023-02-04T12:58:12.451Z,83.49
2023-02-04T13:00:40.317Z,82.87
2023-02-04T13:03:08.309Z,84.00
2023-02-04T13:05:36.422Z,82.96
2023-02-04T13:08:04.543Z,82.40
2023-02-04T13:10:33.384Z,82.55
2023-02-04T13:13:04.571Z,82.36
2023-02-04T13:15:32.665Z,82.84
2023-02-04T13:18:00.585Z,82.37
2023-02-04T13:20:28.242Z,82.76
2023-02-04T13:22:55.857Z,82.83
2023-02-04T13:25:24.166Z,81.59
2023-02-04T13:27:51.828Z,82.76
2023-02-04T13:30:19.945Z,83.14
2023-02-04T13:32:48.234Z,83.06
2023-02-04T13:35:16.312Z,82.95
2023-02-04T13:37:44.511Z,83.27
2023-02-04T13:40:12.450Z,84.01
2023-02-04T13:42:40.615Z,84.02
2023-02-04T13:45:12.460Z,84.32
2023-02-04T13:47:40.455Z,83.46
2023-02-04T13:50:08.463Z,84.18
2023-02-04T13:52:36.204Z,84.46
2023-02-04T13:55:04.447Z,84.24
2023-02-04T13:57:33.345Z,85.26
2023-02-04T14:00:01.221Z,85.24
2023-02-04T14:02:29.248Z,84.63
2023-02-04T14:04:57.901Z,85.15
2023-02-04T14:07:25.555Z,85.19
2023-02-04T14:09:53.800Z,84.79
2023-02-04T14:12:21.544Z,84.77
2023-02-04T14:14:49.212Z,84.14
2023-02-04T14:17:17.068Z,83.64
2023-02-04T14:19:44.716Z,84.74
2023-02-04T14:22:13.379Z,84.04
2023-02-04T14:24:42.808Z,83.88
2023-02-04T14:27:10.774Z,84.07
2023-02-04T14:29:38.444Z,83.12
2023-02-04T14:32:06.283Z,82.85
2023-02-04T14:34:33.932Z,83.08
2023-02-04T14:37:01.676Z,82.29
2023-02-04T14:39:29.592Z,81.69
2023-02-04T14:41:57.322Z,81.32
2023-02-04T14:44:24.926Z,82.54
2023-02-04T14:46:52.642Z,81.56
2023-02-04T14:49:20.290Z,81.99
2023-02-04T14:51:48.165Z,80.86
2023-02-04T14:54:16.567Z,81.79
2023-02-04T14:56:46.606Z,81.42
2023-02-04T14:59:14.198Z,80.91
2023-02-04T15:01:42.489Z,80.39
2023-02-04T15:04:12.008Z,80.37
2023-02-04T15:06:40.166Z,80.94
2023-02-04T15:09:07.899Z,81.18
2023-02-04T15:11:35.917Z,80.89
2023-02-04T15:14:03.870Z,80.45
2023-02-04T15:16:32.026Z,80.22
2023-02-04T15:18:59.570Z,80.17
2023-02-04T15:24:12.637Z,80.00
2023-02-04T15:26:40.614Z,80.10
2023-02-04T15:31:53.648Z,79.58
2023-02-04T15:34:21.362Z,80.09
2023-02-04T15:36:49.029Z,79.48
2023-02-04T15:39:16.672Z,79.94
2023-02-04T15:41:44.353Z,79.71
2023-02-04T15:44:12.751Z,79.91
2023-02-04T15:46:40.430Z,79.12
2023-02-04T15:49:09.295Z,79.66
2023-02-04T15:51:37.752Z,79.74
2023-02-04T15:54:05.500Z,80.00
2023-02-04T15:56:33.880Z,79.41
2023-02-04T15:59:02.473Z,79.53
2023-02-04T16:01:30.612Z,79.87
2023-02-04T16:03:59.136Z,78.63
2023-02-04T16:06:26.743Z,79.68
2023-02-04T16:08:54.845Z,79.08
2023-02-04T16:11:22.662Z,78.43
2023-02-04T16:13:51.806Z,77.80
2023-02-04T16:16:20.515Z,77.62
2023-02-04T16:18:48.249Z,78.01
2023-02-04T16:21:16.028Z,79.06
2023-02-04T16:23:43.960Z,80.04
2023-02-04T16:26:12.162Z,80.05
2023-02-04T16:28:40.428Z,81.02
2023-02-04T16:31:10.215Z,81.24
2023-02-04T16:33:37.957Z,81.50
2023-02-04T16:36:08.506Z,81.47
2023-02-04T16:38:36.894Z,80.59
2023-02-04T16:41:05.958Z,80.85
2023-02-04T16:43:33.727Z,80.16
2023-02-04T16:46:01.544Z,80.54
2023-02-04T16:48:29.064Z,81.62
2023-02-04T16:50:59.768Z,82.90
2023-02-04T16:53:27.447Z,82.21
2023-02-04T16:55:55.925Z,82.49
2023-02-04T16:58:23.596Z,81.81
2023-02-04T17:00:51.345Z,82.79
2023-02-04T17:03:18.971Z,83.77
2023-02-04T17:05:46.642Z,82.72
2023-02-04T17:08:15.301Z,82.62
2023-02-04T17:11:01.418Z,82.94
2023-02-04T17:13:29.130Z,83.24
2023-02-04T17:16:01.418Z,83.15
2023-02-04T17:18:32.462Z,82.23
2023-02-04T17:21:00.161Z,82.23
2023-02-04T17:23:28.826Z,81.67
2023-02-04T17:25:56.529Z,82.56
2023-02-04T17:28:24.366Z,82.23
2023-02-04T17:30:52.057Z,81.82
2023-02-04T17:33:19.671Z,81.03
2023-02-04T17:35:47.297Z,81.18
2023-02-04T17:38:14.945Z,81.85
2023-02-04T17:40:43.208Z,81.44
2023-02-04T17:43:10.943Z,81.92
2023-02-04T17:45:38.594Z,82.09
2023-02-04T17:48:06.352Z,81.58
2023-02-04T17:53:10.829Z,81.57
2023-02-04T17:55:39.705Z,82.61
2023-02-04T17:58:15.722Z,83.15
2023-02-04T18:00:45.291Z,82.99
2023-02-04T18:03:19.898Z,83.49
2023-02-04T18:05:49.554Z,83.61
2023-02-04T18:08:31.885Z,84.14
2023-02-04T18:11:00.043Z,83.64
2023-02-04T18:13:32.672Z,83.52
2023-02-04T18:16:02.986Z,83.72
2023-02-04T18:18:38.437Z,83.57
2023-02-04T18:21:19.785Z,83.26
2023-02-04T18:23:54.097Z,84.09
2023-02-04T18:26:25.858Z,84.85
2023-02-04T18:28:53.482Z,84.57
2023-02-04T18:31:48.862Z,84.71
2023-02-04T18:34:21.276Z,85.76
2023-02-04T18:36:48.937Z,85.79
2023-02-04T18:39:21.556Z,86.02
2023-02-04T18:41:50.421Z,84.62
2023-02-04T18:44:32.708Z,84.29
2023-02-04T18:47:01.706Z,84.87
2023-02-04T18:49:30.760Z,84.73
2023-02-04T18:51:59.828Z,84.63
2023-02-04T18:54:37.158Z,84.51
2023-02-04T18:57:13.912Z,84.24
2023-02-04T18:59:41.913Z,84.47
2023-02-04T19:02:58.073Z,84.45
2023-02-04T19:05:32.384Z,85.33
2023-02-04T19:08:06.130Z,85.13
2023-02-04T19:10:37.225Z,85.73
2023-02-04T19:13:18.994Z,84.74
2023-02-04T19:15:52.387Z,84.97
2023-02-04T19:18:33.836Z,84.29
2023-02-04T19:21:21.291Z,85.35
2023-02-04T19:23:50.363Z,85.87
2023-02-04T19:26:33.407Z,85.10
2023-02-04T19:29:01.592Z,85.55
2023-02-04T19:31:34.879Z,86.56
2023-02-04T19:34:23.989Z,86.55
2023-02-04T19:36:51.678Z,86.49
2023-02-04T19:39:38.584Z,86.04
2023-02-04T19:42:24.792Z,86.91
2023-02-04T19:44:52.601Z,87.28
2023-02-04T19:47:29.772Z,87.71
2023-02-04T19:50:12.702Z,87.30
2023-02-04T19:52:52.525Z,86.67
2023-02-04T19:55:24.951Z,86.33
2023-02-04T19:58:05.275Z,87.47
2023-02-04T20:00:34.122Z,87.63
2023-02-04T20:03:02.685Z,87.02
2023-02-04T20:05:32.525Z,87.51
2023-02-04T20:08:27.993Z,87.96
2023-02-04T20:10:56.194Z,86.74
2023-02-04T20:13:24.282Z,88.18
2023-02-04T20:15:53.212Z,88.04
2023-02-04T20:18:23.085Z,87.28
2023-02-04T20:20:50.726Z,88.18
2023-02-04T20:23:27.770Z,87.76
2023-02-04T20:25:55.651Z,87.77
2023-02-04T20:28:23.206Z,88.25
2023-02-04T20:30:51.442Z,88.54
2023-02-04T20:33:49.195Z,88.64
2023-02-04T20:36:26.911Z,88.08
2023-02-04T20:39:09.265Z,87.54
2023-02-04T20:41:37.550Z,87.95
2023-02-04T20:44:15.540Z,88.35
2023-02-04T20:46:43.325Z,87.81
2023-02-04T20:49:25.286Z,87.68
2023-02-04T20:51:56.692Z,88.04
2023-02-04T20:54:24.084Z,88.55
2023-02-04T20:56:51.638Z,88.41
2023-02-04T20:59:25.796Z,89.02
2023-02-04T21:01:53.784Z,89.66
2023-02-04T21:04:32.527Z,89.71
2023-02-04T21:07:02.655Z,88.88
2023-02-04T21:09:32.786Z,89.72
2023-02-04T21:12:01.472Z,88.91
2023-02-04T21:14:29.473Z,89.52
2023-02-04T21:16:57.349Z,88.70
2023-02-04T21:19:25.594Z,89.02
2023-02-04T21:21:56.001Z,88.59
2023-02-04T21:24:24.347Z,89.00
2023-02-04T21:26:52.210Z,89.83
2023-02-04T21:29:19.959Z,89.82
2023-02-04T21:31:47.772Z,89.75
2023-02-04T21:34:16.713Z,89.67
2023-02-04T21:36:44.292Z,89.04
2023-02-04T21:39:12.276Z,88.92
2023-02-04T21:41:39.925Z,89.46
2023-02-04T21:44:07.531Z,89.25
2023-02-04T21:46:35.560Z,89.03
2023-02-04T21:49:05.085Z,89.35
2023-02-04T21:51:34.058Z,89.57
2023-02-04T21:54:04.568Z,88.26
2023-02-04T21:56:32.320Z,88.90
2023-02-04T21:59:00.063Z,90.01
2023-02-04T22:01:27.601Z,90.02
2023-02-04T22:03:55.502Z,90.22
2023-02-04T22:06:23.032Z,90.70
2023-02-04T22:08:50.694Z,91.86
2023-02-04T22:11:19.554Z,91.27
2023-02-04T22:14:05.862Z,90.89
2023-02-04T22:16:33.446Z,91.06
2023-02-04T22:19:01.209Z,91.38
2023-02-04T22:21:28.827Z,91.47
2023-02-04T22:23:56.353Z,90.82
2023-02-04T22:26:24.050Z,91.60
2023-02-04T22:28:51.648Z,91.62
2023-02-04T22:31:19.597Z,91.37
2023-02-04T22:33:47.236Z,90.86
2023-02-04T22:36:14.828Z,90.57
2023-02-04T22:38:42.587Z,90.52
2023-02-04T22:41:10.372Z,90.23
2023-02-04T22:43:38.306Z,90.33
2023-02-04T22:46:05.957Z,91.07
2023-02-04T22:48:33.542Z,89.98
2023-02-04T22:51:03.717Z,89.81
2023-02-04T22:53:31.982Z,89.46
2023-02-04T22:56:00.263Z,89.72
2023-02-04T22:58:28.123Z,89.28
2023-02-04T23:00:55.844Z,89.12
2023-02-04T23:03:23.406Z,88.95
2023-02-04T23:05:50.941Z,89.58
2023-02-04T23:08:18.958Z,89.55
2023-02-04T23:10:46.606Z,90.01
2023-02-04T23:13:28.561Z,89.58
2023-02-04T23:15:56.296Z,89.74
2023-02-04T23:18:24.322Z,88.66
2023-02-04T23:20:52.442Z,88.72
2023-02-04T23:23:20.120Z,89.56
2023-02-04T23:25:49.419Z,89.78
2023-02-04T23:28:17.076Z,89.14
2023-02-04T23:30:45.207Z,89.29
2023-02-04T23:33:12.993Z,89.69
2023-02-04T23:35:40.567Z,89.78
2023-02-04T23:38:08.587Z,90.94
2023-02-04T23:40:36.190Z,90.40
2023-02-04T23:43:04.094Z,90.06
2023-02-04T23:45:32.073Z,89.25
2023-02-04T23:47:59.844Z,89.08
2023-02-04T23:50:27.471Z,89.72
2023-02-04T23:52:55.050Z,89.73
2023-02-04T23:55:22.637Z,89.69
2023-02-04T23:57:50.862Z,90.04
